sensor_id;sensor_type;location;lat;lon;timestamp;P1;durP1;ratioP1;P2;durP2;ratioP2
72117;SDS011;59992;47.490;8.736;2023-02-12T00:00:33;33.50;;;13.80;;
72117;SDS011;59992;47.490;8.736;2023-02-12T00:03:01;34.70;;;14.90;;
72117;SDS011;59992;47.490;8.736;2023-02-12T00:05:29;30.40;;;13.60;;
72117;SDS011;59992;47.490;8.736;2023-02-12T00:07:57;33.80;;;14.00;;
72117;SDS011;59992;47.490;8.736;2023-02-12T00:10:25;29.80;;;14.40;;
72117;SDS011;59992;47.490;8.736;2023-02-12T00:12:52;32.50;;;14.40;;
72117;SDS011;59992;47.490;8.736;2023-02-12T00:15:20;30.00;;;13.10;;
72117;SDS011;59992;47.490;8.736;2023-02-12T00:17:47;30.20;;;13.30;;
72117;SDS011;59992;47.490;8.736;2023-02-12T00:20:15;33.40;;;13.90;;
72117;SDS011;59992;47.490;8.736;2023-02-12T00:22:43;33.00;;;13.50;;
72117;SDS011;59992;47.490;8.736;2023-02-12T00:25:10;33.40;;;15.00;;
72117;SDS011;59992;47.490;8.736;2023-02-12T00:27:38;27.90;;;13.20;;
72117;SDS011;59992;47.490;8.736;2023-02-12T00:30:07;25.80;;;12.60;;
72117;SDS011;59992;47.490;8.736;2023-02-12T00:32:35;26.00;;;12.70;;
72117;SDS011;59992;47.490;8.736;2023-02-12T00:35:03;26.90;;;12.20;;
72117;SDS011;59992;47.490;8.736;2023-02-12T00:37:31;27.80;;;12.40;;
72117;SDS011;59992;47.490;8.736;2023-02-12T00:39:59;26.00;;;12.90;;
72117;SDS011;59992;47.490;8.736;2023-02-12T00:42:27;30.70;;;12.50;;
72117;SDS011;59992;47.490;8.736;2023-02-12T00:44:54;28.80;;;13.50;;
72117;SDS011;59992;47.490;8.736;2023-02-12T00:47:23;28.10;;;13.30;;
72117;SDS011;59992;47.490;8.736;2023-02-12T00:49:50;27.60;;;13.00;;
72117;SDS011;59992;47.490;8.736;2023-02-12T00:52:18;27.50;;;12.10;;
72117;SDS011;59992;47.490;8.736;2023-02-12T00:54:45;32.70;;;13.00;;
72117;SDS011;59992;47.490;8.736;2023-02-12T00:57:13;36.30;;;16.40;;
72117;SDS011;59992;47.490;8.736;2023-02-12T00:59:40;34.40;;;15.10;;
72117;SDS011;59992;47.490;8.736;2023-02-12T01:02:09;32.50;;;14.10;;
72117;SDS011;59992;47.490;8.736;2023-02-12T01:04:36;36.50;;;15.40;;
72117;SDS011;59992;47.490;8.736;2023-02-12T01:07:04;36.60;;;16.40;;
72117;SDS011;59992;47.490;8.736;2023-02-12T01:09:32;34.00;;;15.20;;
72117;SDS011;59992;47.490;8.736;2023-02-12T01:12:00;37.30;;;17.00;;
72117;SDS011;59992;47.490;8.736;2023-02-12T01:14:28;34.60;;;15.40;;
72117;SDS011;59992;47.490;8.736;2023-02-12T01:16:55;35.10;;;15.60;;
72117;SDS011;59992;47.490;8.736;2023-02-12T01:19:23;36.80;;;15.40;;
72117;SDS011;59992;47.490;8.736;2023-02-12T01:21:51;36.70;;;15.30;;
72117;SDS011;59992;47.490;8.736;2023-02-12T01:24:19;29.40;;;14.70;;
72117;SDS011;59992;47.490;8.736;2023-02-12T01:26:46;34.70;;;15.10;;
72117;SDS011;59992;47.490;8.736;2023-02-12T01:29:14;33.00;;;14.40;;
72117;SDS011;59992;47.490;8.736;2023-02-12T01:31:42;36.30;;;15.30;;
72117;SDS011;59992;47.490;8.736;2023-02-12T01:34:09;37.10;;;16.60;;
72117;SDS011;59992;47.490;8.736;2023-02-12T01:36:38;31.00;;;14.90;;
72117;SDS011;59992;47.490;8.736;2023-02-12T01:39:06;37.80;;;17.20;;
72117;SDS011;59992;47.490;8.736;2023-02-12T01:41:36;38.50;;;17.00;;
72117;SDS011;59992;47.490;8.736;2023-02-12T01:44:08;38.70;;;17.50;;
72117;SDS011;59992;47.490;8.736;2023-02-12T01:46:41;35.20;;;15.60;;
72117;SDS011;59992;47.490;8.736;2023-02-12T01:49:11;36.10;;;16.80;;
72117;SDS011;59992;47.490;8.736;2023-02-12T01:51:42;39.50;;;18.00;;
72117;SDS011;59992;47.490;8.736;2023-02-12T01:54:12;34.60;;;15.40;;
72117;SDS011;59992;47.490;8.736;2023-02-12T01:56:42;32.50;;;14.20;;
72117;SDS011;59992;47.490;8.736;2023-02-12T01:59:11;32.70;;;15.50;;
72117;SDS011;59992;47.490;8.736;2023-02-12T02:01:39;34.90;;;15.40;;
72117;SDS011;59992;47.490;8.736;2023-02-12T02:04:09;37.60;;;15.70;;
72117;SDS011;59992;47.490;8.736;2023-02-12T02:06:42;31.60;;;15.10;;
72117;SDS011;59992;47.490;8.736;2023-02-12T02:09:15;32.80;;;14.30;;
72117;SDS011;59992;47.490;8.736;2023-02-12T02:11:45;31.60;;;13.90;;
72117;SDS011;59992;47.490;8.736;2023-02-12T02:14:30;29.80;;;13.20;;
72117;SDS011;59992;47.490;8.736;2023-02-12T02:17:17;32.50;;;14.20;;
72117;SDS011;59992;47.490;8.736;2023-02-12T02:20:23;32.10;;;13.20;;
72117;SDS011;59992;47.490;8.736;2023-02-12T02:23:24;28.40;;;14.10;;
72117;SDS011;59992;47.490;8.736;2023-02-12T02:26:16;30.60;;;15.00;;
72117;SDS011;59992;47.490;8.736;2023-02-12T02:29:03;31.50;;;14.60;;
72117;SDS011;59992;47.490;8.736;2023-02-12T02:31:45;34.40;;;15.00;;
72117;SDS011;59992;47.490;8.736;2023-02-12T02:34:20;35.10;;;15.20;;
72117;SDS011;59992;47.490;8.736;2023-02-12T02:36:57;31.80;;;14.50;;
72117;SDS011;59992;47.490;8.736;2023-02-12T02:39:33;40.10;;;17.00;;
72117;SDS011;59992;47.490;8.736;2023-02-12T02:42:08;38.30;;;17.00;;
72117;SDS011;59992;47.490;8.736;2023-02-12T02:44:43;33.80;;;16.20;;
72117;SDS011;59992;47.490;8.736;2023-02-12T02:47:17;39.60;;;16.90;;
72117;SDS011;59992;47.490;8.736;2023-02-12T02:49:49;36.10;;;16.80;;
72117;SDS011;59992;47.490;8.736;2023-02-12T02:52:21;39.00;;;15.70;;
72117;SDS011;59992;47.490;8.736;2023-02-12T02:54:54;34.20;;;15.70;;
72117;SDS011;59992;47.490;8.736;2023-02-12T02:57:27;35.70;;;15.60;;
72117;SDS011;59992;47.490;8.736;2023-02-12T03:00:00;33.30;;;15.10;;
72117;SDS011;59992;47.490;8.736;2023-02-12T03:02:33;33.00;;;15.00;;
72117;SDS011;59992;47.490;8.736;2023-02-12T03:05:07;31.50;;;15.90;;
72117;SDS011;59992;47.490;8.736;2023-02-12T03:07:41;36.80;;;15.90;;
72117;SDS011;59992;47.490;8.736;2023-02-12T03:10:16;30.80;;;14.50;;
72117;SDS011;59992;47.490;8.736;2023-02-12T03:12:48;35.30;;;15.40;;
72117;SDS011;59992;47.490;8.736;2023-02-12T03:15:22;34.30;;;15.30;;
72117;SDS011;59992;47.490;8.736;2023-02-12T03:17:54;35.30;;;15.20;;
72117;SDS011;59992;47.490;8.736;2023-02-12T03:20:27;33.50;;;14.70;;
72117;SDS011;59992;47.490;8.736;2023-02-12T03:22:57;32.20;;;14.40;;
72117;SDS011;59992;47.490;8.736;2023-02-12T03:25:32;38.70;;;16.20;;
72117;SDS011;59992;47.490;8.736;2023-02-12T03:28:03;35.60;;;14.60;;
72117;SDS011;59992;47.490;8.736;2023-02-12T03:30:37;37.60;;;15.90;;
72117;SDS011;59992;47.490;8.736;2023-02-12T03:33:14;35.40;;;14.10;;
72117;SDS011;59992;47.490;8.736;2023-02-12T03:35:51;36.00;;;16.20;;
72117;SDS011;59992;47.490;8.736;2023-02-12T03:38:27;31.40;;;14.40;;
72117;SDS011;59992;47.490;8.736;2023-02-12T03:41:02;38.00;;;15.40;;
72117;SDS011;59992;47.490;8.736;2023-02-12T03:43:35;41.00;;;16.50;;
72117;SDS011;59992;47.490;8.736;2023-02-12T03:46:13;37.30;;;15.50;;
72117;SDS011;59992;47.490;8.736;2023-02-12T03:48:46;35.60;;;15.70;;
72117;SDS011;59992;47.490;8.736;2023-02-12T03:51:26;34.60;;;15.60;;
72117;SDS011;59992;47.490;8.736;2023-02-12T03:53:59;31.40;;;14.80;;
72117;SDS011;59992;47.490;8.736;2023-02-12T03:56:29;34.20;;;15.30;;
72117;SDS011;59992;47.490;8.736;2023-02-12T03:59:03;34.60;;;16.60;;
72117;SDS011;59992;47.490;8.736;2023-02-12T04:01:33;34.80;;;15.10;;
72117;SDS011;59992;47.490;8.736;2023-02-12T04:04:03;43.50;;;17.50;;
72117;SDS011;59992;47.490;8.736;2023-02-12T04:06:33;43.80;;;16.20;;
72117;SDS011;59992;47.490;8.736;2023-02-12T04:09:02;34.90;;;15.20;;
72117;SDS011;59992;47.490;8.736;2023-02-12T04:11:35;39.90;;;16.60;;
72117;SDS011;59992;47.490;8.736;2023-02-12T04:14:15;38.70;;;17.20;;
72117;SDS011;59992;47.490;8.736;2023-02-12T04:16:50;37.70;;;16.70;;
72117;SDS011;59992;47.490;8.736;2023-02-12T04:19:24;38.70;;;16.10;;
72117;SDS011;59992;47.490;8.736;2023-02-12T04:22:06;37.70;;;17.60;;
72117;SDS011;59992;47.490;8.736;2023-02-12T04:24:45;37.20;;;16.50;;
72117;SDS011;59992;47.490;8.736;2023-02-12T04:27:25;42.00;;;17.50;;
72117;SDS011;59992;47.490;8.736;2023-02-12T04:30:01;39.60;;;16.80;;
72117;SDS011;59992;47.490;8.736;2023-02-12T04:32:36;43.00;;;17.50;;
72117;SDS011;59992;47.490;8.736;2023-02-12T04:35:09;42.70;;;17.10;;
72117;SDS011;59992;47.490;8.736;2023-02-12T04:37:44;37.60;;;17.20;;
72117;SDS011;59992;47.490;8.736;2023-02-12T04:40:18;35.70;;;15.70;;
72117;SDS011;59992;47.490;8.736;2023-02-12T04:42:49;32.30;;;15.70;;
72117;SDS011;59992;47.490;8.736;2023-02-12T04:45:20;39.90;;;17.00;;
72117;SDS011;59992;47.490;8.736;2023-02-12T04:47:51;36.50;;;16.20;;
72117;SDS011;59992;47.490;8.736;2023-02-12T04:50:19;36.30;;;16.10;;
72117;SDS011;59992;47.490;8.736;2023-02-12T04:52:50;40.20;;;16.70;;
72117;SDS011;59992;47.490;8.736;2023-02-12T04:55:18;37.00;;;16.80;;
72117;SDS011;59992;47.490;8.736;2023-02-12T04:57:45;35.20;;;15.10;;
72117;SDS011;59992;47.490;8.736;2023-02-12T05:00:15;37.10;;;16.10;;
72117;SDS011;59992;47.490;8.736;2023-02-12T05:02:44;37.20;;;15.00;;
72117;SDS011;59992;47.490;8.736;2023-02-12T05:05:12;37.00;;;17.10;;
72117;SDS011;59992;47.490;8.736;2023-02-12T05:07:40;34.80;;;15.50;;
72117;SDS011;59992;47.490;8.736;2023-02-12T05:10:08;36.00;;;15.70;;
72117;SDS011;59992;47.490;8.736;2023-02-12T05:12:37;42.80;;;16.20;;
72117;SDS011;59992;47.490;8.736;2023-02-12T05:15:05;38.70;;;16.60;;
72117;SDS011;59992;47.490;8.736;2023-02-12T05:17:34;39.20;;;16.00;;
72117;SDS011;59992;47.490;8.736;2023-02-12T05:20:02;34.70;;;15.60;;
72117;SDS011;59992;47.490;8.736;2023-02-12T05:22:30;38.30;;;16.00;;
72117;SDS011;59992;47.490;8.736;2023-02-12T05:24:59;33.40;;;14.90;;
72117;SDS011;59992;47.490;8.736;2023-02-12T05:27:27;38.60;;;16.50;;
72117;SDS011;59992;47.490;8.736;2023-02-12T05:29:54;37.70;;;15.90;;
72117;SDS011;59992;47.490;8.736;2023-02-12T05:32:22;36.70;;;16.10;;
72117;SDS011;59992;47.490;8.736;2023-02-12T05:34:50;34.60;;;14.80;;
72117;SDS011;59992;47.490;8.736;2023-02-12T05:37:18;37.60;;;16.40;;
72117;SDS011;59992;47.490;8.736;2023-02-12T05:39:48;39.20;;;16.20;;
72117;SDS011;59992;47.490;8.736;2023-02-12T05:42:15;38.30;;;15.70;;
72117;SDS011;59992;47.490;8.736;2023-02-12T05:44:42;36.10;;;15.50;;
72117;SDS011;59992;47.490;8.736;2023-02-12T05:47:10;36.10;;;17.00;;
72117;SDS011;59992;47.490;8.736;2023-02-12T05:49:38;41.20;;;17.50;;
72117;SDS011;59992;47.490;8.736;2023-02-12T05:52:07;37.30;;;15.30;;
72117;SDS011;59992;47.490;8.736;2023-02-12T05:54:37;41.30;;;16.80;;
72117;SDS011;59992;47.490;8.736;2023-02-12T05:57:06;35.20;;;15.40;;
72117;SDS011;59992;47.490;8.736;2023-02-12T05:59:34;44.20;;;17.00;;
72117;SDS011;59992;47.490;8.736;2023-02-12T06:02:02;42.10;;;16.70;;
72117;SDS011;59992;47.490;8.736;2023-02-12T06:04:30;38.90;;;16.10;;
72117;SDS011;59992;47.490;8.736;2023-02-12T06:06:58;38.00;;;15.40;;
72117;SDS011;59992;47.490;8.736;2023-02-12T06:09:26;40.10;;;16.70;;
72117;SDS011;59992;47.490;8.736;2023-02-12T06:11:53;42.70;;;17.00;;
72117;SDS011;59992;47.490;8.736;2023-02-12T06:14:21;43.40;;;18.10;;
72117;SDS011;59992;47.490;8.736;2023-02-12T06:16:49;41.60;;;17.10;;
72117;SDS011;59992;47.490;8.736;2023-02-12T06:19:18;39.90;;;17.50;;
72117;SDS011;59992;47.490;8.736;2023-02-12T06:21:46;36.00;;;16.00;;
72117;SDS011;59992;47.490;8.736;2023-02-12T06:24:16;38.20;;;17.30;;
72117;SDS011;59992;47.490;8.736;2023-02-12T06:26:44;44.00;;;17.80;;
72117;SDS011;59992;47.490;8.736;2023-02-12T06:29:15;40.90;;;17.80;;
72117;SDS011;59992;47.490;8.736;2023-02-12T06:31:42;36.60;;;15.80;;
72117;SDS011;59992;47.490;8.736;2023-02-12T06:34:10;35.30;;;15.70;;
72117;SDS011;59992;47.490;8.736;2023-02-12T06:36:39;38.80;;;15.60;;
72117;SDS011;59992;47.490;8.736;2023-02-12T06:39:10;38.10;;;16.40;;
72117;SDS011;59992;47.490;8.736;2023-02-12T06:41:39;33.30;;;15.10;;
72117;SDS011;59992;47.490;8.736;2023-02-12T06:44:09;35.50;;;15.40;;
72117;SDS011;59992;47.490;8.736;2023-02-12T06:46:36;35.10;;;15.80;;
72117;SDS011;59992;47.490;8.736;2023-02-12T06:49:04;34.70;;;15.30;;
72117;SDS011;59992;47.490;8.736;2023-02-12T06:51:32;34.30;;;15.60;;
72117;SDS011;59992;47.490;8.736;2023-02-12T06:54:01;35.10;;;16.10;;
72117;SDS011;59992;47.490;8.736;2023-02-12T06:56:29;36.00;;;15.90;;
72117;SDS011;59992;47.490;8.736;2023-02-12T06:58:57;37.70;;;15.90;;
72117;SDS011;59992;47.490;8.736;2023-02-12T07:01:27;36.80;;;15.50;;
72117;SDS011;59992;47.490;8.736;2023-02-12T07:03:55;39.00;;;15.70;;
72117;SDS011;59992;47.490;8.736;2023-02-12T07:06:25;33.00;;;15.00;;
72117;SDS011;59992;47.490;8.736;2023-02-12T07:08:54;33.20;;;14.80;;
72117;SDS011;59992;47.490;8.736;2023-02-12T07:11:24;37.80;;;15.20;;
72117;SDS011;59992;47.490;8.736;2023-02-12T07:13:52;38.50;;;16.20;;
72117;SDS011;59992;47.490;8.736;2023-02-12T07:16:20;35.70;;;15.50;;
72117;SDS011;59992;47.490;8.736;2023-02-12T07:18:48;32.10;;;14.60;;
72117;SDS011;59992;47.490;8.736;2023-02-12T07:21:16;35.70;;;16.90;;
72117;SDS011;59992;47.490;8.736;2023-02-12T07:23:45;31.00;;;15.60;;
72117;SDS011;59992;47.490;8.736;2023-02-12T07:26:14;31.10;;;15.40;;
72117;SDS011;59992;47.490;8.736;2023-02-12T07:28:44;33.90;;;15.10;;
72117;SDS011;59992;47.490;8.736;2023-02-12T07:31:12;36.60;;;15.40;;
72117;SDS011;59992;47.490;8.736;2023-02-12T07:33:41;34.00;;;16.20;;
72117;SDS011;59992;47.490;8.736;2023-02-12T07:36:11;34.20;;;16.00;;
72117;SDS011;59992;47.490;8.736;2023-02-12T07:38:40;33.30;;;15.50;;
72117;SDS011;59992;47.490;8.736;2023-02-12T07:41:11;32.70;;;16.30;;
72117;SDS011;59992;47.490;8.736;2023-02-12T07:43:40;35.80;;;17.60;;
72117;SDS011;59992;47.490;8.736;2023-02-12T07:46:11;37.60;;;17.10;;
72117;SDS011;59992;47.490;8.736;2023-02-12T07:48:41;35.50;;;17.60;;
72117;SDS011;59992;47.490;8.736;2023-02-12T07:51:10;37.10;;;17.90;;
72117;SDS011;59992;47.490;8.736;2023-02-12T07:53:39;34.00;;;16.40;;
72117;SDS011;59992;47.490;8.736;2023-02-12T07:56:09;35.10;;;17.40;;
72117;SDS011;59992;47.490;8.736;2023-02-12T07:58:38;33.70;;;16.90;;
72117;SDS011;59992;47.490;8.736;2023-02-12T08:01:11;36.80;;;17.60;;
72117;SDS011;59992;47.490;8.736;2023-02-12T08:03:41;33.40;;;16.80;;
72117;SDS011;59992;47.490;8.736;2023-02-12T08:06:11;35.40;;;17.20;;
72117;SDS011;59992;47.490;8.736;2023-02-12T08:08:39;34.90;;;17.30;;
72117;SDS011;59992;47.490;8.736;2023-02-12T08:11:08;38.10;;;18.20;;
72117;SDS011;59992;47.490;8.736;2023-02-12T08:13:37;40.20;;;18.50;;
72117;SDS011;59992;47.490;8.736;2023-02-12T08:16:07;38.00;;;18.10;;
72117;SDS011;59992;47.490;8.736;2023-02-12T08:18:37;36.80;;;19.00;;
72117;SDS011;59992;47.490;8.736;2023-02-12T08:21:06;36.80;;;18.50;;
72117;SDS011;59992;47.490;8.736;2023-02-12T08:23:36;35.60;;;18.60;;
72117;SDS011;59992;47.490;8.736;2023-02-12T08:26:08;37.40;;;18.50;;
72117;SDS011;59992;47.490;8.736;2023-02-12T08:28:38;35.70;;;18.60;;
72117;SDS011;59992;47.490;8.736;2023-02-12T08:31:09;37.10;;;18.20;;
72117;SDS011;59992;47.490;8.736;2023-02-12T08:33:38;39.30;;;19.10;;
72117;SDS011;59992;47.490;8.736;2023-02-12T08:36:08;37.30;;;19.50;;
72117;SDS011;59992;47.490;8.736;2023-02-12T08:38:37;36.90;;;19.30;;
72117;SDS011;59992;47.490;8.736;2023-02-12T08:41:06;36.70;;;19.50;;
72117;SDS011;59992;47.490;8.736;2023-02-12T08:43:36;35.60;;;17.50;;
72117;SDS011;59992;47.490;8.736;2023-02-12T08:46:06;36.20;;;19.50;;
72117;SDS011;59992;47.490;8.736;2023-02-12T08:48:35;35.60;;;18.50;;
72117;SDS011;59992;47.490;8.736;2023-02-12T08:51:04;35.80;;;18.50;;
72117;SDS011;59992;47.490;8.736;2023-02-12T08:53:34;36.50;;;18.90;;
72117;SDS011;59992;47.490;8.736;2023-02-12T08:56:03;32.80;;;17.30;;
72117;SDS011;59992;47.490;8.736;2023-02-12T08:58:32;34.90;;;19.30;;
72117;SDS011;59992;47.490;8.736;2023-02-12T09:01:00;36.30;;;19.30;;
72117;SDS011;59992;47.490;8.736;2023-02-12T09:03:29;35.00;;;18.00;;
72117;SDS011;59992;47.490;8.736;2023-02-12T09:05:56;35.70;;;19.00;;
72117;SDS011;59992;47.490;8.736;2023-02-12T09:08:27;34.20;;;18.50;;
72117;SDS011;59992;47.490;8.736;2023-02-12T09:10:55;37.40;;;19.20;;
72117;SDS011;59992;47.490;8.736;2023-02-12T09:13:22;33.50;;;18.90;;
72117;SDS011;59992;47.490;8.736;2023-02-12T09:15:50;35.10;;;18.70;;
72117;SDS011;59992;47.490;8.736;2023-02-12T09:18:18;34.40;;;18.10;;
72117;SDS011;59992;47.490;8.736;2023-02-12T09:20:45;37.60;;;20.30;;
72117;SDS011;59992;47.490;8.736;2023-02-12T09:23:13;33.80;;;19.30;;
72117;SDS011;59992;47.490;8.736;2023-02-12T09:25:41;39.70;;;20.30;;
72117;SDS011;59992;47.490;8.736;2023-02-12T09:28:11;35.30;;;19.80;;
72117;SDS011;59992;47.490;8.736;2023-02-12T09:30:40;36.60;;;18.70;;
72117;SDS011;59992;47.490;8.736;2023-02-12T09:33:08;35.80;;;19.00;;
72117;SDS011;59992;47.490;8.736;2023-02-12T09:35:37;37.40;;;19.40;;
72117;SDS011;59992;47.490;8.736;2023-02-12T09:38:06;37.20;;;19.30;;
72117;SDS011;59992;47.490;8.736;2023-02-12T09:40:37;37.50;;;19.50;;
72117;SDS011;59992;47.490;8.736;2023-02-12T09:43:11;36.30;;;19.00;;
72117;SDS011;59992;47.490;8.736;2023-02-12T09:45:45;39.60;;;20.70;;
72117;SDS011;59992;47.490;8.736;2023-02-12T09:48:34;38.10;;;19.20;;
72117;SDS011;59992;47.490;8.736;2023-02-12T09:51:10;37.00;;;18.90;;
72117;SDS011;59992;47.490;8.736;2023-02-12T09:53:38;38.60;;;19.10;;
72117;SDS011;59992;47.490;8.736;2023-02-12T09:56:12;39.00;;;19.20;;
72117;SDS011;59992;47.490;8.736;2023-02-12T09:58:44;37.60;;;18.80;;
72117;SDS011;59992;47.490;8.736;2023-02-12T10:01:17;37.20;;;19.90;;
72117;SDS011;59992;47.490;8.736;2023-02-12T10:03:47;41.00;;;20.30;;
72117;SDS011;59992;47.490;8.736;2023-02-12T10:06:16;36.30;;;18.90;;
72117;SDS011;59992;47.490;8.736;2023-02-12T10:11:49;34.50;;;18.80;;
72117;SDS011;59992;47.490;8.736;2023-02-12T10:14:40;34.80;;;17.50;;
72117;SDS011;59992;47.490;8.736;2023-02-12T10:17:21;32.00;;;17.30;;
72117;SDS011;59992;47.490;8.736;2023-02-12T10:20:04;34.20;;;17.70;;
72117;SDS011;59992;47.490;8.736;2023-02-12T10:22:54;34.00;;;18.30;;
72117;SDS011;59992;47.490;8.736;2023-02-12T10:25:33;36.00;;;17.80;;
72117;SDS011;59992;47.490;8.736;2023-02-12T10:28:11;37.70;;;19.50;;
72117;SDS011;59992;47.490;8.736;2023-02-12T10:30:43;37.20;;;19.40;;
72117;SDS011;59992;47.490;8.736;2023-02-12T10:33:17;37.60;;;19.30;;
72117;SDS011;59992;47.490;8.736;2023-02-12T10:35:53;37.80;;;19.10;;
72117;SDS011;59992;47.490;8.736;2023-02-12T10:38:26;34.10;;;17.60;;
72117;SDS011;59992;47.490;8.736;2023-02-12T10:41:00;36.60;;;18.50;;
72117;SDS011;59992;47.490;8.736;2023-02-12T10:43:28;30.80;;;16.10;;
72117;SDS011;59992;47.490;8.736;2023-02-12T10:45:56;35.00;;;19.00;;
72117;SDS011;59992;47.490;8.736;2023-02-12T10:48:29;37.60;;;19.00;;
72117;SDS011;59992;47.490;8.736;2023-02-12T10:51:10;34.90;;;18.90;;
72117;SDS011;59992;47.490;8.736;2023-02-12T10:53:53;37.20;;;19.40;;
72117;SDS011;59992;47.490;8.736;2023-02-12T10:56:21;33.80;;;18.40;;
72117;SDS011;59992;47.490;8.736;2023-02-12T10:58:50;30.30;;;17.30;;
72117;SDS011;59992;47.490;8.736;2023-02-12T11:01:25;32.00;;;17.80;;
72117;SDS011;59992;47.490;8.736;2023-02-12T11:03:55;33.50;;;17.20;;
72117;SDS011;59992;47.490;8.736;2023-02-12T11:06:25;31.00;;;16.00;;
72117;SDS011;59992;47.490;8.736;2023-02-12T11:08:54;32.70;;;17.10;;
72117;SDS011;59992;47.490;8.736;2023-02-12T11:11:25;28.80;;;15.40;;
72117;SDS011;59992;47.490;8.736;2023-02-12T11:13:56;30.00;;;16.00;;
72117;SDS011;59992;47.490;8.736;2023-02-12T11:16:30;26.70;;;14.10;;
72117;SDS011;59992;47.490;8.736;2023-02-12T11:19:01;28.30;;;15.30;;
72117;SDS011;59992;47.490;8.736;2023-02-12T11:21:31;28.00;;;15.10;;
72117;SDS011;59992;47.490;8.736;2023-02-12T11:27:00;25.50;;;12.70;;
72117;SDS011;59992;47.490;8.736;2023-02-12T11:29:45;24.00;;;12.80;;
72117;SDS011;59992;47.490;8.736;2023-02-12T11:32:29;27.80;;;13.60;;
72117;SDS011;59992;47.490;8.736;2023-02-12T11:35:03;24.60;;;13.00;;
72117;SDS011;59992;47.490;8.736;2023-02-12T11:37:32;26.60;;;14.20;;
72117;SDS011;59992;47.490;8.736;2023-02-12T11:40:08;26.10;;;13.80;;
72117;SDS011;59992;47.490;8.736;2023-02-12T11:42:45;24.90;;;13.10;;
72117;SDS011;59992;47.490;8.736;2023-02-12T11:45:19;24.90;;;14.10;;
72117;SDS011;59992;47.490;8.736;2023-02-12T11:47:49;27.40;;;14.10;;
72117;SDS011;59992;47.490;8.736;2023-02-12T11:50:23;25.40;;;13.50;;
72117;SDS011;59992;47.490;8.736;2023-02-12T11:52:55;25.10;;;13.00;;
72117;SDS011;59992;47.490;8.736;2023-02-12T11:55:28;25.30;;;13.90;;
72117;SDS011;59992;47.490;8.736;2023-02-12T11:58:02;22.90;;;12.90;;
72117;SDS011;59992;47.490;8.736;2023-02-12T12:00:32;24.20;;;12.90;;
72117;SDS011;59992;47.490;8.736;2023-02-12T12:03:05;29.50;;;13.60;;
72117;SDS011;59992;47.490;8.736;2023-02-12T12:05:39;29.60;;;14.10;;
72117;SDS011;59992;47.490;8.736;2023-02-12T12:08:13;20.30;;;10.40;;
72117;SDS011;59992;47.490;8.736;2023-02-12T12:10:47;21.40;;;11.70;;
72117;SDS011;59992;47.490;8.736;2023-02-12T12:13:22;21.90;;;11.40;;
72117;SDS011;59992;47.490;8.736;2023-02-12T12:16:03;24.00;;;12.70;;
72117;SDS011;59992;47.490;8.736;2023-02-12T12:18:55;22.90;;;12.40;;
72117;SDS011;59992;47.490;8.736;2023-02-12T12:21:47;21.60;;;12.00;;
72117;SDS011;59992;47.490;8.736;2023-02-12T12:24:25;20.90;;;11.60;;
72117;SDS011;59992;47.490;8.736;2023-02-12T12:27:14;24.50;;;12.60;;
72117;SDS011;59992;47.490;8.736;2023-02-12T12:30:10;22.70;;;12.60;;
72117;SDS011;59992;47.490;8.736;2023-02-12T12:32:50;23.00;;;12.50;;
72117;SDS011;59992;47.490;8.736;2023-02-12T12:35:24;23.90;;;12.40;;
72117;SDS011;59992;47.490;8.736;2023-02-12T12:38:04;23.60;;;12.60;;
72117;SDS011;59992;47.490;8.736;2023-02-12T12:40:50;23.10;;;12.60;;
72117;SDS011;59992;47.490;8.736;2023-02-12T12:43:27;21.10;;;11.60;;
72117;SDS011;59992;47.490;8.736;2023-02-12T12:46:11;21.40;;;10.50;;
72117;SDS011;59992;47.490;8.736;2023-02-12T12:49:08;20.90;;;11.90;;
72117;SDS011;59992;47.490;8.736;2023-02-12T12:54:54;22.70;;;11.60;;
72117;SDS011;59992;47.490;8.736;2023-02-12T12:57:45;19.70;;;10.50;;
72117;SDS011;59992;47.490;8.736;2023-02-12T13:00:25;21.10;;;10.80;;
72117;SDS011;59992;47.490;8.736;2023-02-12T13:09:06;19.50;;;10.90;;
72117;SDS011;59992;47.490;8.736;2023-02-12T13:12:05;19.20;;;10.60;;
72117;SDS011;59992;47.490;8.736;2023-02-12T13:15:00;20.10;;;11.30;;
72117;SDS011;59992;47.490;8.736;2023-02-12T13:17:35;19.20;;;10.30;;
72117;SDS011;59992;47.490;8.736;2023-02-12T13:20:12;20.90;;;11.30;;
72117;SDS011;59992;47.490;8.736;2023-02-12T13:22:51;23.00;;;11.40;;
72117;SDS011;59992;47.490;8.736;2023-02-12T13:25:27;21.80;;;11.20;;
72117;SDS011;59992;47.490;8.736;2023-02-12T13:28:01;20.50;;;11.20;;
72117;SDS011;59992;47.490;8.736;2023-02-12T13:30:32;21.60;;;11.80;;
72117;SDS011;59992;47.490;8.736;2023-02-12T13:33:06;21.10;;;11.00;;
72117;SDS011;59992;47.490;8.736;2023-02-12T13:35:40;19.80;;;11.20;;
72117;SDS011;59992;47.490;8.736;2023-02-12T13:38:14;18.00;;;9.40;;
72117;SDS011;59992;47.490;8.736;2023-02-12T13:40:46;20.50;;;11.10;;
72117;SDS011;59992;47.490;8.736;2023-02-12T13:43:20;21.30;;;10.40;;
72117;SDS011;59992;47.490;8.736;2023-02-12T13:45:57;20.50;;;10.60;;
72117;SDS011;59992;47.490;8.736;2023-02-12T13:48:38;20.30;;;10.60;;
72117;SDS011;59992;47.490;8.736;2023-02-12T13:51:17;19.50;;;11.30;;
72117;SDS011;59992;47.490;8.736;2023-02-12T13:53:57;17.40;;;10.10;;
72117;SDS011;59992;47.490;8.736;2023-02-12T13:56:39;18.40;;;9.50;;
72117;SDS011;59992;47.490;8.736;2023-02-12T14:02:23;17.70;;;9.50;;
72117;SDS011;59992;47.490;8.736;2023-02-12T14:05:14;16.60;;;9.50;;
72117;SDS011;59992;47.490;8.736;2023-02-12T14:07:47;19.50;;;10.60;;
72117;SDS011;59992;47.490;8.736;2023-02-12T14:10:23;18.00;;;9.30;;
72117;SDS011;59992;47.490;8.736;2023-02-12T14:12:55;17.00;;;9.50;;
72117;SDS011;59992;47.490;8.736;2023-02-12T14:15:33;18.40;;;10.20;;
72117;SDS011;59992;47.490;8.736;2023-02-12T14:18:04;16.10;;;9.10;;
72117;SDS011;59992;47.490;8.736;2023-02-12T14:20:47;20.20;;;9.90;;
72117;SDS011;59992;47.490;8.736;2023-02-12T14:23:38;18.90;;;10.10;;
72117;SDS011;59992;47.490;8.736;2023-02-12T14:26:07;19.40;;;10.50;;
72117;SDS011;59992;47.490;8.736;2023-02-12T14:28:42;17.20;;;9.70;;
72117;SDS011;59992;47.490;8.736;2023-02-12T14:31:29;18.10;;;9.90;;
72117;SDS011;59992;47.490;8.736;2023-02-12T14:43:25;20.00;;;9.90;;
72117;SDS011;59992;47.490;8.736;2023-02-12T14:45:55;16.80;;;8.70;;
72117;SDS011;59992;47.490;8.736;2023-02-12T14:48:40;18.30;;;10.40;;
72117;SDS011;59992;47.490;8.736;2023-02-12T14:51:18;14.40;;;8.10;;
72117;SDS011;59992;47.490;8.736;2023-02-12T14:53:51;16.50;;;8.60;;
72117;SDS011;59992;47.490;8.736;2023-02-12T14:56:22;13.70;;;7.70;;
72117;SDS011;59992;47.490;8.736;2023-02-12T14:58:52;13.30;;;7.40;;
72117;SDS011;59992;47.490;8.736;2023-02-12T15:01:25;12.90;;;6.80;;
72117;SDS011;59992;47.490;8.736;2023-02-12T15:03:58;13.30;;;7.80;;
72117;SDS011;59992;47.490;8.736;2023-02-12T15:06:37;14.10;;;7.70;;
72117;SDS011;59992;47.490;8.736;2023-02-12T15:09:10;13.20;;;6.40;;
72117;SDS011;59992;47.490;8.736;2023-02-12T15:11:47;11.80;;;6.20;;
72117;SDS011;59992;47.490;8.736;2023-02-12T15:14:21;12.50;;;6.70;;
72117;SDS011;59992;47.490;8.736;2023-02-12T15:16:54;10.30;;;6.10;;
72117;SDS011;59992;47.490;8.736;2023-02-12T15:19:30;11.80;;;6.80;;
72117;SDS011;59992;47.490;8.736;2023-02-12T15:22:09;10.20;;;6.20;;